Dati Storici

Data ora Umidita' aria (%) Temperatura aria (°C) Rad globale (W/m²) Gonioanemometro (°) Tacoanemometro (m/s) Pioggia (mm)
26-06-2020 04:10 88.4 % 18.18 12.761 0.908 0 0
26-06-2020 04:00 86.9 % 18.298 8.793 2.189 0 0
26-06-2020 03:50 85.8 % 18.439 12.236 1.54 0 0
26-06-2020 03:40 85.3 % 18.496 15.033 1.502 0 0
26-06-2020 03:30 85.5 % 18.479 11.6 2.885 0 0
26-06-2020 03:20 85.2 % 18.468 0.047 1.066 0 0
26-06-2020 03:10 84.2 % 18.547 71.7 0.603 0 0
26-06-2020 03:00 83.2 % 18.66 13.196 -0.009 0 0
26-06-2020 02:50 82.4 % 18.787 7.665 1.921 0 0
26-06-2020 02:40 81.9 % 18.871 26.247 1.421 0 0
26-06-2020 02:30 81.9 % 18.87 13.862 1.995 0 0
26-06-2020 02:20 81.8 % 18.902 311.619 0.928 0 0
26-06-2020 02:10 81.5 % 18.948 79.766 1.18 0 0
26-06-2020 02:00 81.3 % 19.055 337.515 0.204 0 0
26-06-2020 01:50 80.7 % 19.11 34.978 2.192 0 0
26-06-2020 01:40 80.1 % 19.14 349.584 -0.008 0 0
26-06-2020 01:30 79.3 % 19.211 35.035 2.1 0 0
26-06-2020 01:20 79.1 % 19.334 16.898 0.786 0 0
26-06-2020 01:10 79.1 % 19.23 348.431 1.516 0 0
26-06-2020 01:00 79.5 % 19.211 13.405 3.318 0 0

I dati sono presentati in modo automatico a scopo informativo. In seguito a verifica i dati possono subire modifiche o essere invalidati e non riportati negli archivi definitivi.